logo
Search for airport 
image banner adimage banner adimage banner ad
image banner ad

YVCB - Victoria Barracks

Located in Paddington, Australia

ICAO - , IATA -

Data provided by Airmate  

General information

Coordinates: S33°53'7" E151°13'26"
Elevation is 213 feet MSL.
Magnetic variation is 13° East
View others Airports in (unassigned)

Operational data

Special qualification required
Current time UTC:
Current local time:
Weather at : YSSY - Sydney / Kingsford Smith ( 8 km )
METAR: YSSY 191530Z AUTO 20017KT 9999 // BKN020 BKN028 BKN041 18/15 Q1021
TAF: TAF YSSY 191404Z 1915/2018 18020KT 9999 SCT030 FM192300 18020G30KT 9999 -SHRA SCT020 BKN035 FM201000 17018KT 9999 NSW SCT030 INTER 1915/2009 4000 SHRA SCT015
View NOTAMs / SUP AIP / TFR affecting this airport [VIEW]
Communications frequencies: [VIEW]

Runways:

Airport contact information

Address: Paddington Australia

Satellite view of YVCB